sensor_id;sensor_type;location;lat;lon;timestamp;P1;durP1;ratioP1;P2;durP2;ratioP2
71606;SDS011;60641;53.556;9.914;2022-12-05T00:01:19;26.70;;;11.00;;
71606;SDS011;60641;53.556;9.914;2022-12-05T00:03:57;27.30;;;11.70;;
71606;SDS011;60641;53.556;9.914;2022-12-05T00:06:25;24.30;;;10.30;;
71606;SDS011;60641;53.556;9.914;2022-12-05T00:08:53;26.00;;;10.40;;
71606;SDS011;60641;53.556;9.914;2022-12-05T00:11:21;24.70;;;9.30;;
71606;SDS011;60641;53.556;9.914;2022-12-05T00:13:50;22.70;;;9.40;;
71606;SDS011;60641;53.556;9.914;2022-12-05T00:16:19;26.00;;;11.10;;
71606;SDS011;60641;53.556;9.914;2022-12-05T00:18:47;24.10;;;10.60;;
71606;SDS011;60641;53.556;9.914;2022-12-05T00:21:15;15.80;;;8.00;;
71606;SDS011;60641;53.556;9.914;2022-12-05T00:23:43;26.00;;;11.40;;
71606;SDS011;60641;53.556;9.914;2022-12-05T00:26:10;26.20;;;11.60;;
71606;SDS011;60641;53.556;9.914;2022-12-05T00:28:37;24.30;;;10.80;;
71606;SDS011;60641;53.556;9.914;2022-12-05T00:31:04;25.70;;;10.20;;
71606;SDS011;60641;53.556;9.914;2022-12-05T00:33:32;26.10;;;12.20;;
71606;SDS011;60641;53.556;9.914;2022-12-05T00:36:10;26.10;;;10.50;;
71606;SDS011;60641;53.556;9.914;2022-12-05T00:38:38;19.40;;;8.10;;
71606;SDS011;60641;53.556;9.914;2022-12-05T00:41:05;24.40;;;11.00;;
71606;SDS011;60641;53.556;9.914;2022-12-05T00:43:36;21.60;;;9.50;;
71606;SDS011;60641;53.556;9.914;2022-12-05T00:46:07;20.80;;;9.20;;
71606;SDS011;60641;53.556;9.914;2022-12-05T00:48:36;22.40;;;9.60;;
71606;SDS011;60641;53.556;9.914;2022-12-05T00:51:04;20.90;;;9.70;;
71606;SDS011;60641;53.556;9.914;2022-12-05T00:53:32;17.90;;;7.30;;
71606;SDS011;60641;53.556;9.914;2022-12-05T00:56:02;23.00;;;11.00;;
71606;SDS011;60641;53.556;9.914;2022-12-05T00:58:31;22.00;;;11.20;;
71606;SDS011;60641;53.556;9.914;2022-12-05T01:01:08;22.80;;;10.00;;
71606;SDS011;60641;53.556;9.914;2022-12-05T01:03:37;22.90;;;10.60;;
71606;SDS011;60641;53.556;9.914;2022-12-05T01:06:04;22.30;;;10.90;;
71606;SDS011;60641;53.556;9.914;2022-12-05T01:08:31;24.80;;;11.70;;
71606;SDS011;60641;53.556;9.914;2022-12-05T01:10:58;18.80;;;9.20;;
71606;SDS011;60641;53.556;9.914;2022-12-05T01:13:25;24.10;;;11.20;;
71606;SDS011;60641;53.556;9.914;2022-12-05T01:15:53;21.70;;;9.30;;
71606;SDS011;60641;53.556;9.914;2022-12-05T01:18:20;19.50;;;8.20;;
71606;SDS011;60641;53.556;9.914;2022-12-05T01:20:47;21.60;;;9.60;;
71606;SDS011;60641;53.556;9.914;2022-12-05T01:23:14;19.70;;;9.60;;
71606;SDS011;60641;53.556;9.914;2022-12-05T01:25:41;19.80;;;9.20;;
71606;SDS011;60641;53.556;9.914;2022-12-05T01:28:10;21.40;;;9.40;;
71606;SDS011;60641;53.556;9.914;2022-12-05T01:30:38;19.20;;;7.90;;
71606;SDS011;60641;53.556;9.914;2022-12-05T01:33:05;22.40;;;11.30;;
71606;SDS011;60641;53.556;9.914;2022-12-05T01:35:33;22.90;;;11.00;;
71606;SDS011;60641;53.556;9.914;2022-12-05T01:38:00;19.90;;;8.80;;
71606;SDS011;60641;53.556;9.914;2022-12-05T01:40:27;13.10;;;9.30;;
71606;SDS011;60641;53.556;9.914;2022-12-05T01:42:53;19.10;;;8.50;;
71606;SDS011;60641;53.556;9.914;2022-12-05T01:45:34;19.00;;;7.10;;
71606;SDS011;60641;53.556;9.914;2022-12-05T01:48:04;21.60;;;10.20;;
71606;SDS011;60641;53.556;9.914;2022-12-05T01:50:33;18.70;;;8.40;;
71606;SDS011;60641;53.556;9.914;2022-12-05T01:53:00;17.40;;;8.50;;
71606;SDS011;60641;53.556;9.914;2022-12-05T01:55:27;18.70;;;9.00;;
71606;SDS011;60641;53.556;9.914;2022-12-05T01:57:54;16.40;;;7.70;;
71606;SDS011;60641;53.556;9.914;2022-12-05T02:00:22;19.30;;;9.30;;
71606;SDS011;60641;53.556;9.914;2022-12-05T02:02:50;20.00;;;7.60;;
71606;SDS011;60641;53.556;9.914;2022-12-05T02:05:21;19.70;;;9.10;;
71606;SDS011;60641;53.556;9.914;2022-12-05T02:07:50;23.50;;;8.70;;
71606;SDS011;60641;53.556;9.914;2022-12-05T02:10:17;20.40;;;9.20;;
71606;SDS011;60641;53.556;9.914;2022-12-05T02:12:44;19.80;;;10.20;;
71606;SDS011;60641;53.556;9.914;2022-12-05T02:15:14;15.40;;;8.60;;
71606;SDS011;60641;53.556;9.914;2022-12-05T02:23:01;17.80;;;8.00;;
71606;SDS011;60641;53.556;9.914;2022-12-05T02:33:41;17.90;;;7.70;;
71606;SDS011;60641;53.556;9.914;2022-12-05T02:36:17;18.50;;;7.60;;
71606;SDS011;60641;53.556;9.914;2022-12-05T02:44:16;20.10;;;9.70;;
71606;SDS011;60641;53.556;9.914;2022-12-05T02:46:46;21.50;;;8.70;;
71606;SDS011;60641;53.556;9.914;2022-12-05T02:49:24;23.30;;;11.10;;
71606;SDS011;60641;53.556;9.914;2022-12-05T02:51:55;16.90;;;6.80;;
71606;SDS011;60641;53.556;9.914;2022-12-05T02:54:24;21.00;;;8.30;;
71606;SDS011;60641;53.556;9.914;2022-12-05T02:56:58;18.80;;;8.40;;
71606;SDS011;60641;53.556;9.914;2022-12-05T02:59:25;21.30;;;9.60;;
71606;SDS011;60641;53.556;9.914;2022-12-05T03:01:52;21.40;;;9.40;;
71606;SDS011;60641;53.556;9.914;2022-12-05T03:04:20;24.70;;;10.60;;
71606;SDS011;60641;53.556;9.914;2022-12-05T03:06:49;22.50;;;10.60;;
71606;SDS011;60641;53.556;9.914;2022-12-05T03:09:23;22.80;;;11.00;;
71606;SDS011;60641;53.556;9.914;2022-12-05T03:12:02;24.70;;;11.10;;
71606;SDS011;60641;53.556;9.914;2022-12-05T03:14:53;22.90;;;11.10;;
71606;SDS011;60641;53.556;9.914;2022-12-05T03:17:28;25.00;;;11.50;;
71606;SDS011;60641;53.556;9.914;2022-12-05T03:19:59;22.50;;;8.40;;
71606;SDS011;60641;53.556;9.914;2022-12-05T03:22:31;25.20;;;10.60;;
71606;SDS011;60641;53.556;9.914;2022-12-05T03:25:01;17.70;;;7.80;;
71606;SDS011;60641;53.556;9.914;2022-12-05T03:27:51;21.90;;;9.40;;
71606;SDS011;60641;53.556;9.914;2022-12-05T03:30:15;17.10;;;6.40;;
71606;SDS011;60641;53.556;9.914;2022-12-05T03:39:12;19.50;;;8.40;;
71606;SDS011;60641;53.556;9.914;2022-12-05T03:42:08;23.10;;;11.50;;
71606;SDS011;60641;53.556;9.914;2022-12-05T03:44:48;21.10;;;9.20;;
71606;SDS011;60641;53.556;9.914;2022-12-05T03:47:29;18.90;;;8.20;;
71606;SDS011;60641;53.556;9.914;2022-12-05T03:50:22;17.80;;;7.40;;
71606;SDS011;60641;53.556;9.914;2022-12-05T03:52:51;24.20;;;11.70;;
71606;SDS011;60641;53.556;9.914;2022-12-05T03:55:32;21.50;;;9.40;;
71606;SDS011;60641;53.556;9.914;2022-12-05T03:58:01;21.60;;;10.40;;
71606;SDS011;60641;53.556;9.914;2022-12-05T04:00:50;24.20;;;11.20;;
71606;SDS011;60641;53.556;9.914;2022-12-05T04:03:22;20.80;;;10.00;;
71606;SDS011;60641;53.556;9.914;2022-12-05T04:06:05;22.30;;;8.70;;
71606;SDS011;60641;53.556;9.914;2022-12-05T04:08:38;21.50;;;9.50;;
71606;SDS011;60641;53.556;9.914;2022-12-05T04:11:09;21.80;;;9.20;;
71606;SDS011;60641;53.556;9.914;2022-12-05T04:14:02;19.50;;;7.60;;
71606;SDS011;60641;53.556;9.914;2022-12-05T04:16:38;21.80;;;10.00;;
71606;SDS011;60641;53.556;9.914;2022-12-05T04:19:27;27.80;;;11.90;;
71606;SDS011;60641;53.556;9.914;2022-12-05T04:22:17;24.30;;;10.80;;
71606;SDS011;60641;53.556;9.914;2022-12-05T04:24:44;26.50;;;11.10;;
71606;SDS011;60641;53.556;9.914;2022-12-05T04:30:24;25.40;;;11.50;;
71606;SDS011;60641;53.556;9.914;2022-12-05T04:32:57;27.00;;;12.20;;
71606;SDS011;60641;53.556;9.914;2022-12-05T04:35:29;26.50;;;12.10;;
71606;SDS011;60641;53.556;9.914;2022-12-05T04:38:03;27.40;;;12.60;;
71606;SDS011;60641;53.556;9.914;2022-12-05T04:40:36;27.20;;;11.70;;
71606;SDS011;60641;53.556;9.914;2022-12-05T04:43:08;26.80;;;12.40;;
71606;SDS011;60641;53.556;9.914;2022-12-05T04:45:34;27.80;;;12.50;;
71606;SDS011;60641;53.556;9.914;2022-12-05T04:48:04;25.30;;;11.90;;
71606;SDS011;60641;53.556;9.914;2022-12-05T04:50:35;24.50;;;10.50;;
71606;SDS011;60641;53.556;9.914;2022-12-05T04:53:03;27.00;;;11.60;;
71606;SDS011;60641;53.556;9.914;2022-12-05T04:55:31;30.30;;;13.20;;
71606;SDS011;60641;53.556;9.914;2022-12-05T05:00:34;24.50;;;11.10;;
71606;SDS011;60641;53.556;9.914;2022-12-05T05:03:09;24.70;;;10.30;;
71606;SDS011;60641;53.556;9.914;2022-12-05T05:05:39;22.50;;;9.30;;
71606;SDS011;60641;53.556;9.914;2022-12-05T05:08:17;27.90;;;12.60;;
71606;SDS011;60641;53.556;9.914;2022-12-05T05:13:47;27.10;;;11.30;;
71606;SDS011;60641;53.556;9.914;2022-12-05T05:16:15;25.70;;;8.10;;
71606;SDS011;60641;53.556;9.914;2022-12-05T05:18:46;28.40;;;10.00;;
71606;SDS011;60641;53.556;9.914;2022-12-05T05:21:18;27.80;;;12.80;;
71606;SDS011;60641;53.556;9.914;2022-12-05T05:23:47;23.30;;;9.80;;
71606;SDS011;60641;53.556;9.914;2022-12-05T05:26:14;29.90;;;12.40;;
71606;SDS011;60641;53.556;9.914;2022-12-05T05:28:41;27.60;;;11.60;;
71606;SDS011;60641;53.556;9.914;2022-12-05T05:31:08;25.80;;;11.80;;
71606;SDS011;60641;53.556;9.914;2022-12-05T05:33:34;22.80;;;9.20;;
71606;SDS011;60641;53.556;9.914;2022-12-05T05:36:05;22.80;;;10.40;;
71606;SDS011;60641;53.556;9.914;2022-12-05T05:38:37;23.40;;;9.30;;
71606;SDS011;60641;53.556;9.914;2022-12-05T05:41:04;28.80;;;11.80;;
71606;SDS011;60641;53.556;9.914;2022-12-05T05:43:31;26.30;;;10.00;;
71606;SDS011;60641;53.556;9.914;2022-12-05T05:45:58;24.60;;;9.90;;
71606;SDS011;60641;53.556;9.914;2022-12-05T05:48:24;31.70;;;12.80;;
71606;SDS011;60641;53.556;9.914;2022-12-05T05:50:51;28.10;;;10.50;;
71606;SDS011;60641;53.556;9.914;2022-12-05T05:53:17;30.00;;;11.60;;
71606;SDS011;60641;53.556;9.914;2022-12-05T05:55:43;33.90;;;12.60;;
71606;SDS011;60641;53.556;9.914;2022-12-05T05:58:10;30.80;;;11.30;;
71606;SDS011;60641;53.556;9.914;2022-12-05T06:00:36;27.60;;;10.80;;
71606;SDS011;60641;53.556;9.914;2022-12-05T06:03:03;30.80;;;10.80;;
71606;SDS011;60641;53.556;9.914;2022-12-05T06:05:29;34.00;;;12.90;;
71606;SDS011;60641;53.556;9.914;2022-12-05T06:07:56;29.60;;;11.30;;
71606;SDS011;60641;53.556;9.914;2022-12-05T06:10:26;29.60;;;11.50;;
71606;SDS011;60641;53.556;9.914;2022-12-05T06:12:58;29.90;;;11.80;;
71606;SDS011;60641;53.556;9.914;2022-12-05T06:15:25;33.20;;;13.90;;
71606;SDS011;60641;53.556;9.914;2022-12-05T06:17:52;31.60;;;12.60;;
71606;SDS011;60641;53.556;9.914;2022-12-05T06:20:18;33.70;;;11.20;;
71606;SDS011;60641;53.556;9.914;2022-12-05T06:22:44;35.10;;;11.00;;
71606;SDS011;60641;53.556;9.914;2022-12-05T06:25:11;35.00;;;10.70;;
71606;SDS011;60641;53.556;9.914;2022-12-05T06:27:37;33.80;;;10.00;;
71606;SDS011;60641;53.556;9.914;2022-12-05T06:30:04;37.40;;;12.10;;
71606;SDS011;60641;53.556;9.914;2022-12-05T06:32:31;37.60;;;12.40;;
71606;SDS011;60641;53.556;9.914;2022-12-05T06:34:57;33.90;;;11.20;;
71606;SDS011;60641;53.556;9.914;2022-12-05T06:37:24;42.60;;;16.10;;
71606;SDS011;60641;53.556;9.914;2022-12-05T06:39:50;42.40;;;13.20;;
71606;SDS011;60641;53.556;9.914;2022-12-05T06:42:18;47.20;;;15.00;;
71606;SDS011;60641;53.556;9.914;2022-12-05T06:44:44;33.90;;;12.50;;
71606;SDS011;60641;53.556;9.914;2022-12-05T06:47:11;46.10;;;13.50;;
71606;SDS011;60641;53.556;9.914;2022-12-05T06:49:37;38.20;;;14.10;;
71606;SDS011;60641;53.556;9.914;2022-12-05T06:52:04;39.20;;;12.70;;
71606;SDS011;60641;53.556;9.914;2022-12-05T06:54:30;39.00;;;12.80;;
71606;SDS011;60641;53.556;9.914;2022-12-05T06:56:57;33.40;;;10.20;;
71606;SDS011;60641;53.556;9.914;2022-12-05T06:59:23;39.60;;;12.90;;
71606;SDS011;60641;53.556;9.914;2022-12-05T07:01:50;45.30;;;15.10;;
71606;SDS011;60641;53.556;9.914;2022-12-05T07:04:17;41.30;;;13.30;;
71606;SDS011;60641;53.556;9.914;2022-12-05T07:06:51;43.60;;;14.10;;
71606;SDS011;60641;53.556;9.914;2022-12-05T07:09:20;45.20;;;14.40;;
71606;SDS011;60641;53.556;9.914;2022-12-05T07:11:48;41.20;;;13.40;;
71606;SDS011;60641;53.556;9.914;2022-12-05T07:14:15;36.00;;;12.10;;
71606;SDS011;60641;53.556;9.914;2022-12-05T07:16:42;36.20;;;12.20;;
71606;SDS011;60641;53.556;9.914;2022-12-05T07:19:09;29.30;;;10.10;;
71606;SDS011;60641;53.556;9.914;2022-12-05T07:21:36;33.20;;;10.40;;
71606;SDS011;60641;53.556;9.914;2022-12-05T07:24:02;34.90;;;12.00;;
71606;SDS011;60641;53.556;9.914;2022-12-05T07:26:29;43.50;;;15.80;;
71606;SDS011;60641;53.556;9.914;2022-12-05T07:28:55;35.60;;;10.80;;
71606;SDS011;60641;53.556;9.914;2022-12-05T07:31:23;35.00;;;10.00;;
71606;SDS011;60641;53.556;9.914;2022-12-05T07:33:51;39.60;;;10.70;;
71606;SDS011;60641;53.556;9.914;2022-12-05T07:36:18;38.30;;;12.20;;
71606;SDS011;60641;53.556;9.914;2022-12-05T07:38:46;39.60;;;16.70;;
71606;SDS011;60641;53.556;9.914;2022-12-05T07:41:13;34.20;;;10.50;;
71606;SDS011;60641;53.556;9.914;2022-12-05T07:43:44;44.30;;;15.30;;
71606;SDS011;60641;53.556;9.914;2022-12-05T07:46:11;49.20;;;14.40;;
71606;SDS011;60641;53.556;9.914;2022-12-05T07:48:37;42.90;;;12.70;;
71606;SDS011;60641;53.556;9.914;2022-12-05T07:51:05;51.20;;;14.80;;
71606;SDS011;60641;53.556;9.914;2022-12-05T07:53:32;51.10;;;16.30;;
71606;SDS011;60641;53.556;9.914;2022-12-05T07:56:00;49.00;;;15.70;;
71606;SDS011;60641;53.556;9.914;2022-12-05T07:58:27;37.40;;;13.80;;
71606;SDS011;60641;53.556;9.914;2022-12-05T08:00:55;35.00;;;11.60;;
71606;SDS011;60641;53.556;9.914;2022-12-05T08:03:21;26.80;;;10.10;;
71606;SDS011;60641;53.556;9.914;2022-12-05T08:05:48;32.20;;;11.40;;
71606;SDS011;60641;53.556;9.914;2022-12-05T08:08:14;34.60;;;11.20;;
71606;SDS011;60641;53.556;9.914;2022-12-05T08:10:41;33.50;;;13.10;;
71606;SDS011;60641;53.556;9.914;2022-12-05T08:13:07;38.10;;;12.30;;
71606;SDS011;60641;53.556;9.914;2022-12-05T08:15:34;27.30;;;8.80;;
71606;SDS011;60641;53.556;9.914;2022-12-05T08:18:02;36.90;;;11.90;;
71606;SDS011;60641;53.556;9.914;2022-12-05T08:20:28;33.90;;;11.00;;
71606;SDS011;60641;53.556;9.914;2022-12-05T08:22:55;28.90;;;12.20;;
71606;SDS011;60641;53.556;9.914;2022-12-05T08:25:22;28.90;;;10.30;;
71606;SDS011;60641;53.556;9.914;2022-12-05T08:27:48;33.10;;;11.40;;
71606;SDS011;60641;53.556;9.914;2022-12-05T08:30:15;37.20;;;13.70;;
71606;SDS011;60641;53.556;9.914;2022-12-05T08:32:42;34.10;;;11.70;;
71606;SDS011;60641;53.556;9.914;2022-12-05T08:35:08;31.70;;;10.80;;
71606;SDS011;60641;53.556;9.914;2022-12-05T08:37:35;34.30;;;10.90;;
71606;SDS011;60641;53.556;9.914;2022-12-05T08:40:02;32.30;;;10.90;;
71606;SDS011;60641;53.556;9.914;2022-12-05T08:42:29;34.10;;;11.90;;
71606;SDS011;60641;53.556;9.914;2022-12-05T08:44:55;30.80;;;11.20;;
71606;SDS011;60641;53.556;9.914;2022-12-05T08:47:24;33.80;;;11.70;;
71606;SDS011;60641;53.556;9.914;2022-12-05T08:49:51;36.60;;;12.20;;
71606;SDS011;60641;53.556;9.914;2022-12-05T08:52:17;35.50;;;11.60;;
71606;SDS011;60641;53.556;9.914;2022-12-05T08:54:44;37.90;;;11.20;;
71606;SDS011;60641;53.556;9.914;2022-12-05T08:57:10;31.20;;;10.00;;
71606;SDS011;60641;53.556;9.914;2022-12-05T08:59:37;29.40;;;10.70;;
71606;SDS011;60641;53.556;9.914;2022-12-05T09:02:03;34.20;;;11.80;;
71606;SDS011;60641;53.556;9.914;2022-12-05T09:04:30;35.30;;;12.50;;
71606;SDS011;60641;53.556;9.914;2022-12-05T09:06:56;30.80;;;10.70;;
71606;SDS011;60641;53.556;9.914;2022-12-05T09:09:23;30.40;;;9.40;;
71606;SDS011;60641;53.556;9.914;2022-12-05T09:11:49;30.40;;;11.00;;
71606;SDS011;60641;53.556;9.914;2022-12-05T09:14:16;29.00;;;10.50;;
71606;SDS011;60641;53.556;9.914;2022-12-05T09:16:44;36.50;;;12.30;;
71606;SDS011;60641;53.556;9.914;2022-12-05T09:19:13;41.20;;;11.80;;
71606;SDS011;60641;53.556;9.914;2022-12-05T09:21:41;29.40;;;10.10;;
71606;SDS011;60641;53.556;9.914;2022-12-05T09:24:09;41.20;;;12.70;;
71606;SDS011;60641;53.556;9.914;2022-12-05T09:26:37;41.10;;;12.30;;
71606;SDS011;60641;53.556;9.914;2022-12-05T09:29:04;42.80;;;12.60;;
71606;SDS011;60641;53.556;9.914;2022-12-05T09:31:30;27.30;;;9.40;;
71606;SDS011;60641;53.556;9.914;2022-12-05T09:33:57;24.90;;;9.00;;
71606;SDS011;60641;53.556;9.914;2022-12-05T09:36:24;37.90;;;11.80;;
71606;SDS011;60641;53.556;9.914;2022-12-05T09:38:52;37.30;;;12.00;;
71606;SDS011;60641;53.556;9.914;2022-12-05T09:47:44;25.90;;;7.80;;
71606;SDS011;60641;53.556;9.914;2022-12-05T09:52:58;27.40;;;9.10;;
71606;SDS011;60641;53.556;9.914;2022-12-05T09:55:29;27.50;;;10.00;;
71606;SDS011;60641;53.556;9.914;2022-12-05T09:58:02;21.50;;;6.50;;
71606;SDS011;60641;53.556;9.914;2022-12-05T10:00:30;30.90;;;10.80;;
71606;SDS011;60641;53.556;9.914;2022-12-05T10:05:45;31.20;;;10.10;;
71606;SDS011;60641;53.556;9.914;2022-12-05T10:08:31;27.40;;;8.70;;
71606;SDS011;60641;53.556;9.914;2022-12-05T10:16:46;20.50;;;6.70;;
71606;SDS011;60641;53.556;9.914;2022-12-05T10:19:17;29.10;;;9.60;;
71606;SDS011;60641;53.556;9.914;2022-12-05T10:22:32;22.80;;;7.50;;
71606;SDS011;60641;53.556;9.914;2022-12-05T10:24:51;21.00;;;7.30;;
71606;SDS011;60641;53.556;9.914;2022-12-05T10:27:26;29.50;;;10.00;;
71606;SDS011;60641;53.556;9.914;2022-12-05T10:30:00;20.60;;;6.40;;
71606;SDS011;60641;53.556;9.914;2022-12-05T10:37:45;23.40;;;8.10;;
71606;SDS011;60641;53.556;9.914;2022-12-05T10:40:25;20.40;;;7.00;;
71606;SDS011;60641;53.556;9.914;2022-12-05T10:42:53;23.70;;;8.60;;
71606;SDS011;60641;53.556;9.914;2022-12-05T10:45:20;27.20;;;9.30;;
71606;SDS011;60641;53.556;9.914;2022-12-05T10:47:54;23.50;;;8.50;;
71606;SDS011;60641;53.556;9.914;2022-12-05T10:50:24;22.30;;;6.10;;
71606;SDS011;60641;53.556;9.914;2022-12-05T10:52:54;27.80;;;9.30;;
71606;SDS011;60641;53.556;9.914;2022-12-05T10:55:22;20.90;;;7.00;;
71606;SDS011;60641;53.556;9.914;2022-12-05T10:58:07;23.60;;;7.90;;
71606;SDS011;60641;53.556;9.914;2022-12-05T11:00:36;26.50;;;9.40;;
71606;SDS011;60641;53.556;9.914;2022-12-05T11:06:01;27.90;;;8.40;;
71606;SDS011;60641;53.556;9.914;2022-12-05T11:08:43;21.60;;;8.30;;
71606;SDS011;60641;53.556;9.914;2022-12-05T11:11:18;27.50;;;9.90;;
71606;SDS011;60641;53.556;9.914;2022-12-05T11:16:50;27.50;;;9.00;;
71606;SDS011;60641;53.556;9.914;2022-12-05T11:19:35;21.90;;;7.20;;
71606;SDS011;60641;53.556;9.914;2022-12-05T11:22:14;23.10;;;7.70;;
71606;SDS011;60641;53.556;9.914;2022-12-05T11:24:49;23.30;;;7.40;;
71606;SDS011;60641;53.556;9.914;2022-12-05T11:27:30;30.80;;;10.90;;
71606;SDS011;60641;53.556;9.914;2022-12-05T11:35:45;27.10;;;9.90;;
71606;SDS011;60641;53.556;9.914;2022-12-05T11:38:15;26.40;;;9.00;;
71606;SDS011;60641;53.556;9.914;2022-12-05T11:43:27;23.60;;;9.80;;
71606;SDS011;60641;53.556;9.914;2022-12-05T11:51:58;13.10;;;4.80;;
71606;SDS011;60641;53.556;9.914;2022-12-05T12:20:20;23.30;;;9.20;;
71606;SDS011;60641;53.556;9.914;2022-12-05T12:23:10;20.80;;;7.30;;
71606;SDS011;60641;53.556;9.914;2022-12-05T12:29:04;16.00;;;4.60;;
71606;SDS011;60641;53.556;9.914;2022-12-05T12:34:26;17.60;;;6.70;;
71606;SDS011;60641;53.556;9.914;2022-12-05T12:37:24;19.10;;;6.30;;
71606;SDS011;60641;53.556;9.914;2022-12-05T12:40:01;18.40;;;7.70;;
71606;SDS011;60641;53.556;9.914;2022-12-05T12:42:47;20.80;;;7.70;;
71606;SDS011;60641;53.556;9.914;2022-12-05T12:50:27;18.00;;;7.00;;
71606;SDS011;60641;53.556;9.914;2022-12-05T12:53:20;16.80;;;6.60;;
71606;SDS011;60641;53.556;9.914;2022-12-05T13:01:45;18.20;;;7.10;;
71606;SDS011;60641;53.556;9.914;2022-12-05T13:04:22;19.20;;;7.70;;
71606;SDS011;60641;53.556;9.914;2022-12-05T13:09:33;21.50;;;7.30;;
71606;SDS011;60641;53.556;9.914;2022-12-05T13:12:07;18.80;;;8.10;;
71606;SDS011;60641;53.556;9.914;2022-12-05T13:14:37;18.50;;;7.80;;
71606;SDS011;60641;53.556;9.914;2022-12-05T13:17:05;16.30;;;7.00;;
71606;SDS011;60641;53.556;9.914;2022-12-05T13:19:41;21.80;;;8.10;;
71606;SDS011;60641;53.556;9.914;2022-12-05T13:22:09;19.50;;;7.40;;
71606;SDS011;60641;53.556;9.914;2022-12-05T13:24:37;15.50;;;5.70;;
71606;SDS011;60641;53.556;9.914;2022-12-05T13:27:04;19.10;;;8.00;;
71606;SDS011;60641;53.556;9.914;2022-12-05T13:32:00;17.90;;;7.40;;
71606;SDS011;60641;53.556;9.914;2022-12-05T13:36:55;17.50;;;7.20;;
71606;SDS011;60641;53.556;9.914;2022-12-05T13:39:41;19.10;;;7.70;;
71606;SDS011;60641;53.556;9.914;2022-12-05T13:42:37;15.40;;;6.90;;
71606;SDS011;60641;53.556;9.914;2022-12-05T13:47:36;18.90;;;8.10;;
71606;SDS011;60641;53.556;9.914;2022-12-05T13:50:26;16.80;;;7.30;;
71606;SDS011;60641;53.556;9.914;2022-12-05T13:53:46;18.00;;;7.40;;
71606;SDS011;60641;53.556;9.914;2022-12-05T13:58:48;17.80;;;6.60;;
71606;SDS011;60641;53.556;9.914;2022-12-05T14:04:02;17.00;;;6.60;;
71606;SDS011;60641;53.556;9.914;2022-12-05T14:17:30;16.20;;;6.90;;
71606;SDS011;60641;53.556;9.914;2022-12-05T14:31:07;13.90;;;5.70;;
71606;SDS011;60641;53.556;9.914;2022-12-05T14:33:43;15.80;;;7.00;;
71606;SDS011;60641;53.556;9.914;2022-12-05T14:36:15;15.90;;;6.90;;
71606;SDS011;60641;53.556;9.914;2022-12-05T14:38:42;19.50;;;7.50;;
71606;SDS011;60641;53.556;9.914;2022-12-05T14:41:24;16.20;;;5.60;;
71606;SDS011;60641;53.556;9.914;2022-12-05T14:43:53;15.80;;;6.80;;
71606;SDS011;60641;53.556;9.914;2022-12-05T14:46:26;15.80;;;6.80;;
71606;SDS011;60641;53.556;9.914;2022-12-05T14:49:32;15.90;;;6.50;;
71606;SDS011;60641;53.556;9.914;2022-12-05T14:52:19;17.20;;;6.40;;
71606;SDS011;60641;53.556;9.914;2022-12-05T14:54:51;13.10;;;5.50;;
71606;SDS011;60641;53.556;9.914;2022-12-05T14:57:30;15.30;;;6.30;;
71606;SDS011;60641;53.556;9.914;2022-12-05T14:59:58;13.40;;;5.50;;
71606;SDS011;60641;53.556;9.914;2022-12-05T15:02:31;15.70;;;6.30;;
71606;SDS011;60641;53.556;9.914;2022-12-05T15:07:54;14.40;;;5.70;;
71606;SDS011;60641;53.556;9.914;2022-12-05T15:10:26;12.90;;;6.00;;
71606;SDS011;60641;53.556;9.914;2022-12-05T15:12:57;12.80;;;5.10;;
71606;SDS011;60641;53.556;9.914;2022-12-05T15:18:11;15.00;;;6.20;;
71606;SDS011;60641;53.556;9.914;2022-12-05T15:26:22;12.40;;;5.60;;
71606;SDS011;60641;53.556;9.914;2022-12-05T15:29:12;14.10;;;5.70;;
71606;SDS011;60641;53.556;9.914;2022-12-05T15:31:43;13.30;;;5.40;;
71606;SDS011;60641;53.556;9.914;2022-12-05T15:34:22;14.70;;;5.80;;
71606;SDS011;60641;53.556;9.914;2022-12-05T15:37:02;13.40;;;5.30;;
71606;SDS011;60641;53.556;9.914;2022-12-05T15:39:53;13.40;;;5.20;;
71606;SDS011;60641;53.556;9.914;2022-12-05T15:42:36;13.60;;;5.10;;
71606;SDS011;60641;53.556;9.914;2022-12-05T15:47:42;11.30;;;5.00;;
71606;SDS011;60641;53.556;9.914;2022-12-05T15:50:13;19.80;;;8.90;;
71606;SDS011;60641;53.556;9.914;2022-12-05T15:52:44;12.80;;;5.30;;
71606;SDS011;60641;53.556;9.914;2022-12-05T15:55:17;12.70;;;5.80;;
71606;SDS011;60641;53.556;9.914;2022-12-05T16:00:39;13.60;;;5.20;;
71606;SDS011;60641;53.556;9.914;2022-12-05T16:03:13;12.60;;;5.20;;
71606;SDS011;60641;53.556;9.914;2022-12-05T16:05:51;12.50;;;5.10;;
71606;SDS011;60641;53.556;9.914;2022-12-05T16:08:43;15.40;;;5.60;;
71606;SDS011;60641;53.556;9.914;2022-12-05T16:11:14;14.70;;;5.80;;
71606;SDS011;60641;53.556;9.914;2022-12-05T16:13:41;16.20;;;7.00;;
71606;SDS011;60641;53.556;9.914;2022-12-05T16:16:12;16.50;;;6.20;;
71606;SDS011;60641;53.556;9.914;2022-12-05T16:18:47;12.80;;;5.30;;
71606;SDS011;60641;53.556;9.914;2022-12-05T16:21:31;12.70;;;5.60;;
71606;SDS011;60641;53.556;9.914;2022-12-05T16:26:52;13.10;;;5.00;;
71606;SDS011;60641;53.556;9.914;2022-12-05T16:29:25;11.60;;;6.40;;
71606;SDS011;60641;53.556;9.914;2022-12-05T16:31:57;11.40;;;4.80;;
71606;SDS011;60641;53.556;9.914;2022-12-05T16:34:30;11.10;;;4.70;;
71606;SDS011;60641;53.556;9.914;2022-12-05T16:36:58;10.80;;;5.00;;
71606;SDS011;60641;53.556;9.914;2022-12-05T16:39:25;13.70;;;5.50;;
71606;SDS011;60641;53.556;9.914;2022-12-05T16:41:53;13.80;;;5.80;;
71606;SDS011;60641;53.556;9.914;2022-12-05T16:46:53;13.60;;;5.60;;
71606;SDS011;60641;53.556;9.914;2022-12-05T16:49:34;12.60;;;5.70;;
71606;SDS011;60641;53.556;9.914;2022-12-05T16:54:34;16.80;;;7.00;;
71606;SDS011;60641;53.556;9.914;2022-12-05T16:57:01;14.60;;;6.70;;
71606;SDS011;60641;53.556;9.914;2022-12-05T16:59:31;16.40;;;8.40;;
71606;SDS011;60641;53.556;9.914;2022-12-05T17:01:59;14.40;;;6.40;;
71606;SDS011;60641;53.556;9.914;2022-12-05T17:04:27;12.90;;;6.10;;
71606;SDS011;60641;53.556;9.914;2022-12-05T17:06:54;12.90;;;6.00;;
71606;SDS011;60641;53.556;9.914;2022-12-05T17:09:20;13.10;;;5.90;;
71606;SDS011;60641;53.556;9.914;2022-12-05T17:11:48;11.70;;;5.50;;
71606;SDS011;60641;53.556;9.914;2022-12-05T17:14:17;12.80;;;5.50;;
71606;SDS011;60641;53.556;9.914;2022-12-05T17:16:44;11.70;;;5.50;;
71606;SDS011;60641;53.556;9.914;2022-12-05T17:19:11;13.30;;;6.00;;
71606;SDS011;60641;53.556;9.914;2022-12-05T17:21:38;14.70;;;5.80;;
71606;SDS011;60641;53.556;9.914;2022-12-05T17:24:17;15.80;;;6.70;;
71606;SDS011;60641;53.556;9.914;2022-12-05T17:26:44;12.40;;;5.90;;
71606;SDS011;60641;53.556;9.914;2022-12-05T17:29:11;12.40;;;5.40;;
71606;SDS011;60641;53.556;9.914;2022-12-05T17:31:38;12.50;;;5.60;;
71606;SDS011;60641;53.556;9.914;2022-12-05T17:34:09;11.30;;;5.00;;
71606;SDS011;60641;53.556;9.914;2022-12-05T17:36:40;13.10;;;5.40;;
71606;SDS011;60641;53.556;9.914;2022-12-05T17:39:08;11.60;;;5.80;;
71606;SDS011;60641;53.556;9.914;2022-12-05T17:41:34;12.10;;;5.40;;
71606;SDS011;60641;53.556;9.914;2022-12-05T17:44:02;11.80;;;5.10;;
71606;SDS011;60641;53.556;9.914;2022-12-05T17:46:29;12.60;;;5.50;;
71606;SDS011;60641;53.556;9.914;2022-12-05T17:48:56;11.90;;;5.30;;
71606;SDS011;60641;53.556;9.914;2022-12-05T17:51:22;12.70;;;5.80;;
71606;SDS011;60641;53.556;9.914;2022-12-05T17:53:49;13.00;;;6.30;;